Terminal Aerodrome Forecast
Issued by NWS

Home | Current Version | Previous Version | Text Only | Print | Product List | Glossary On
Versions: 1 2 3 4 5 6 7 8 9 10 11 12 13 14 15
000
FTUS46 KSGX 021120
TAFTRM
TAF
KTRM 021120Z 0212/0312 VRB05KT P6SM BKN150
     FM021900 14010KT P6SM VCSH SCT100 SCT200
     FM030300 33012G20KT P6SM FEW200
     FM030900 33008KT P6SM SKC=

USA.gov is the U.S. government's official web portal to all federal, state and local government web resources and services.